Flight Track Log - Related Links

Times and Time Zones

All times are in EDT time to prevent confusion due to time zone crossing. See the AKX1730 flight status page for this flight to view local times or setup timezone preferences in your user account.

Time Position Orientation Groundspeed Altitude Reporting Facility
EDT Latitude Longitude Course Direction KTS MPH feet Rate Location/Type
Wed 06:45:00 AM 24.8926 125.4737 56° Northeast  Level Estimated
Wed 06:46:00 AM 24.9475 125.5630 56° Northeast  Level Estimated
Wed 06:47:00 AM 25.0022 125.6525 56° Northeast  Level Estimated
Wed 06:48:00 AM 25.0569 125.7421 56° Northeast  Level Estimated
Wed 06:49:00 AM 25.1116 125.8317 56° Northeast  Level Estimated
Wed 06:50:00 AM 25.1662 125.9214 56° Northeast  Level Estimated
Wed 06:51:00 AM 25.2208 126.0112 56° Northeast  Level Estimated
Wed 06:52:00 AM 25.2753 126.1011 56° Northeast  Level Estimated
Wed 06:53:00 AM 25.3297 126.1910 56° Northeast  Level Estimated
Wed 06:54:00 AM 25.3841 126.2811 56° Northeast  Level Estimated
Wed 06:55:00 AM 25.4384 126.3712 56° Northeast  Level Estimated
Wed 06:56:00 AM 25.4927 126.4614 56° Northeast  Level Estimated
Wed 06:57:00 AM 25.5469 126.5517 56° Northeast  Level Estimated
Wed 06:58:00 AM 25.6011 126.6420 56° Northeast  Level Estimated
Wed 06:59:00 AM 25.6552 126.7325 56° Northeast  Level Estimated
Wed 07:00:00 AM 25.7093 126.8230 56° Northeast  Level Estimated
Wed 07:01:00 AM 25.7633 126.9136 56° Northeast  Level Estimated
Wed 07:02:00 AM 25.8172 127.0043 57° Northeast  Level Estimated
Wed 07:03:00 AM 25.8711 127.0951 57° Northeast  Level Estimated
Wed 07:04:00 AM 25.9249 127.1859 57° Northeast  Level Estimated
Wed 07:05:00 AM 25.9787 127.2769 57° Northeast  Level Estimated
Wed 07:06:00 AM 26.0324 127.3679 57° Northeast  Level Estimated
Wed 07:07:00 AM 26.0861 127.4590 57° Northeast  Level Estimated
Wed 07:08:00 AM 26.1397 127.5502 57° Northeast  Level Estimated
Wed 07:09:00 AM 26.1932 127.6415 57° Northeast  Level Estimated
Wed 07:10:00 AM 26.1958 127.6459 57° Northeast  Level Estimated
Wed 07:11:00 AM 26.1958 127.6459 347° North  Level Estimated
Wed 07:12:00 AM 26.1958 127.6459 347° North  Level Estimated
Wed 07:13:00 AM 26.1958 127.6459 347° North  Level Estimated
Wed 07:14:00 AM 26.1958 127.6459 347° North  Level Estimated
Wed 07:15:00 AM 26.1958 127.6459 347° North  Level Estimated
Wed 07:16:00 AM 26.1958 127.6459 347° North  Level Estimated
Wed 07:17:00 AM 26.1958 127.6459 347° North  Level Estimated
Wed 07:18:00 AM 26.1958 127.6459 347° North  Level Estimated
Wed 07:19:00 AM 26.1958 127.6459 347° North  Level Estimated
Wed 07:20:00 AM 26.1958 127.6459 347° North  Level Estimated
Wed 07:21:00 AM 26.1958 127.6459 347° North  Level Estimated
Wed 07:22:00 AM 26.1958 127.6459 347° North  Level Estimated
Wed 07:23:00 AM 26.1958 127.6459 347° North  Level Estimated
Wed 07:24:00 AM 26.1958 127.6459 347° North  Level Estimated
Wed 07:25:00 AM 26.1958 127.6459 347° North  Level Estimated

Login

Don't have an account? Register now (free) for customized features, flight alerts, and more!